Time;durP1;ratioP1;P1;durP2;ratioP2;P2;SDS_P1;SDS_P2;PMS_P1;PMS_P2;Temp;Humidity;BMP_temperature;BMP_pressure;BME280_temperature;BME280_humidity;BME280_pressure;Samples;Min_cycle;Max_cycle;Signal;HPM_P1;HPM_P2
2021/06/09 00:02:02;;;;;;;;;;;;;;;18.25;45.06;101355.30;1621414;87;20964;-77
2021/06/09 00:04:29;;;;;;;;;;;;;;;18.20;45.10;101353.70;1622654;87;20539;-77
2021/06/09 00:06:55;;;;;;;;;;;;;;;18.17;45.15;101358.23;1622450;87;20449;-76
2021/06/09 00:09:21;;;;;;;;;;;;;;;18.14;45.19;101362.27;1621998;87;20207;-76
2021/06/09 00:11:48;;;;;;;;;;;;;;;18.10;45.31;101356.28;1626031;87;20504;-76
2021/06/09 00:14:16;;;;;;;;;;;;;;;18.07;45.37;101360.77;1623458;87;20935;-77
2021/06/09 00:16:42;;;;;;;;;;;;;;;18.01;45.45;101363.59;1619498;87;20580;-77
2021/06/09 00:19:11;;;;;;;;;;;;;;;17.98;45.54;101361.09;1624146;87;20573;-77
2021/06/09 00:21:38;;;;;;;;;;;;;;;17.93;45.62;101357.77;1632334;87;21049;-77
2021/06/09 00:24:05;;;;;;;;;;;;;;;17.88;45.69;101352.70;1612368;87;21038;-77
2021/06/09 00:26:31;;;;;;;;;;;;;;;17.82;45.73;101349.84;1625927;87;20440;-77
2021/06/09 00:28:58;;;;;;;;;;;;;;;17.78;45.86;101346.92;1616413;87;20481;-77
2021/06/09 00:31:24;;;;;;;;;;;;;;;17.72;45.93;101350.20;1624130;87;20960;-77
2021/06/09 00:33:50;;;;;;;;;;;;;;;17.69;46.03;101352.46;1627045;87;20239;-77
2021/06/09 00:36:16;;;;;;;;;;;;;;;17.66;46.04;101348.67;1635252;87;20991;-77
2021/06/09 00:38:43;;;;;;;;;;;;;;;17.62;46.06;101350.95;1628142;87;20586;-77
2021/06/09 00:41:10;;;;;;;;;;;;;;;17.55;46.13;101348.14;1621278;87;20269;-77
2021/06/09 00:43:36;;;;;;;;;;;;;;;17.49;46.29;101354.88;1618133;87;20608;-77
2021/06/09 00:46:06;;;;;;;;;;;;;;;17.42;46.38;101349.45;1619582;87;20171;-77
2021/06/09 00:48:33;;;;;;;;;;;;;;;17.35;46.47;101351.86;1612213;87;20249;-77
2021/06/09 00:51:04;;;;;;;;;;;;;;;17.28;46.53;101352.95;1624330;87;20549;-77
2021/06/09 00:53:35;;;;;;;;;;;;;;;17.23;46.57;101352.24;1616120;87;20422;-77
2021/06/09 00:56:12;;;;;;;;;;;;;;;17.19;46.66;101356.27;1624462;87;20881;-77
2021/06/09 00:58:40;;;;;;;;;;;;;;;17.14;46.78;101356.89;1620368;87;20442;-77
2021/06/09 01:01:07;;;;;;;;;;;;;;;17.11;46.88;101354.38;1605053;88;20414;-77
2021/06/09 01:03:34;;;;;;;;;;;;;;;17.07;46.99;101359.28;1614356;87;20526;-77
2021/06/09 01:06:02;;;;;;;;;;;;;;;17.04;47.06;101358.08;1597233;88;20746;-77
2021/06/09 01:08:36;;;;;;;;;;;;;;;17.00;47.07;101359.52;1624722;87;20438;-77
2021/06/09 01:11:00;;;;;;;;;;;;;;;16.97;47.16;101355.24;1594675;88;20475;-77
2021/06/09 01:13:29;;;;;;;;;;;;;;;16.92;47.25;101353.22;1625995;87;20100;-77
2021/06/09 01:15:56;;;;;;;;;;;;;;;16.90;47.36;101354.17;1621244;87;20135;-77
2021/06/09 01:18:23;;;;;;;;;;;;;;;16.87;47.35;101353.81;1618013;87;20462;-77
2021/06/09 01:20:50;;;;;;;;;;;;;;;16.82;47.45;101353.95;1614569;87;20485;-77
2021/06/09 01:23:16;;;;;;;;;;;;;;;16.75;47.52;101350.25;1624267;87;20423;-77
2021/06/09 01:25:42;;;;;;;;;;;;;;;16.71;47.62;101352.55;1622749;87;20094;-77
2021/06/09 01:28:12;;;;;;;;;;;;;;;16.68;47.69;101352.64;1614235;88;20538;-77
2021/06/09 01:30:38;;;;;;;;;;;;;;;16.66;47.77;101358.36;1618101;87;20220;-77
2021/06/09 01:33:06;;;;;;;;;;;;;;;16.63;47.84;101358.45;1611327;87;20142;-77
2021/06/09 01:35:32;;;;;;;;;;;;;;;16.62;47.87;101358.05;1626147;87;20727;-77
2021/06/09 01:37:58;;;;;;;;;;;;;;;16.58;47.95;101365.11;1614187;87;20114;-77
2021/06/09 01:40:28;;;;;;;;;;;;;;;16.57;48.00;101363.84;1616262;87;20159;-77
2021/06/09 01:42:55;;;;;;;;;;;;;;;16.52;48.08;101366.59;1616682;87;20466;-77
2021/06/09 01:45:24;;;;;;;;;;;;;;;16.47;48.12;101366.72;1618175;87;20114;-77
2021/06/09 01:47:51;;;;;;;;;;;;;;;16.44;48.23;101366.80;1618076;87;20086;-77
2021/06/09 01:50:19;;;;;;;;;;;;;;;16.42;48.28;101365.14;1617124;87;20145;-77
2021/06/09 01:52:48;;;;;;;;;;;;;;;16.39;48.36;101360.86;1619987;87;20094;-77
2021/06/09 01:55:15;;;;;;;;;;;;;;;16.35;48.37;101360.53;1617026;87;20201;-77
2021/06/09 01:57:42;;;;;;;;;;;;;;;16.32;48.40;101367.14;1614598;87;20189;-77
2021/06/09 02:00:12;;;;;;;;;;;;;;;16.30;48.52;101357.64;1616359;87;20237;-77
2021/06/09 02:02:38;;;;;;;;;;;;;;;16.26;48.52;101362.09;1616373;87;20192;-77
2021/06/09 02:05:06;;;;;;;;;;;;;;;16.22;48.65;101364.38;1624824;87;20198;-77
2021/06/09 02:07:37;;;;;;;;;;;;;;;16.17;48.73;101362.34;1621746;87;20201;-77
2021/06/09 02:10:08;;;;;;;;;;;;;;;16.10;48.76;101359.08;1614975;87;20149;-77
2021/06/09 02:12:35;;;;;;;;;;;;;;;16.04;48.85;101354.47;1616195;88;20193;-77
2021/06/09 02:15:02;;;;;;;;;;;;;;;15.97;48.96;101362.05;1615237;87;20300;-77
2021/06/09 02:17:28;;;;;;;;;;;;;;;15.91;48.99;101359.15;1616175;88;20189;-77
2021/06/09 02:19:55;;;;;;;;;;;;;;;15.89;49.09;101364.41;1616310;87;20210;-77
2021/06/09 02:22:21;;;;;;;;;;;;;;;15.85;49.14;101364.52;1616624;87;20201;-77
2021/06/09 02:24:47;;;;;;;;;;;;;;;15.80;49.22;101359.42;1618395;87;20230;-77
2021/06/09 02:27:13;;;;;;;;;;;;;;;15.76;49.30;101362.15;1617437;87;20189;-77
2021/06/09 02:29:39;;;;;;;;;;;;;;;15.73;49.37;101356.56;1625720;87;20230;-77
2021/06/09 02:32:06;;;;;;;;;;;;;;;15.72;49.50;101360.06;1616121;87;20220;-77
2021/06/09 02:34:35;;;;;;;;;;;;;;;15.70;49.52;101353.17;1628866;87;20246;-77
2021/06/09 02:37:01;;;;;;;;;;;;;;;15.68;49.61;101358.87;1617932;87;20193;-77
2021/06/09 02:39:27;;;;;;;;;;;;;;;15.66;49.65;101355.00;1615017;87;20412;-77
2021/06/09 02:41:55;;;;;;;;;;;;;;;15.66;49.66;101352.84;1591974;88;20261;-77
2021/06/09 02:44:20;;;;;;;;;;;;;;;15.64;49.73;101358.09;1608919;88;20184;-77
2021/06/09 02:46:49;;;;;;;;;;;;;;;15.62;49.76;101359.03;1599416;88;20231;-77
2021/06/09 02:49:17;;;;;;;;;;;;;;;15.58;49.82;101355.67;1608721;88;20194;-77
2021/06/09 02:51:47;;;;;;;;;;;;;;;15.54;49.95;101360.08;1603328;88;20143;-77
2021/06/09 02:54:22;;;;;;;;;;;;;;;15.47;50.00;101362.42;1610425;88;20114;-77
2021/06/09 02:57:13;;;;;;;;;;;;;;;15.42;50.07;101359.06;1618587;87;20115;-77
2021/06/09 02:59:59;;;;;;;;;;;;;;;15.41;50.17;101359.95;1589010;88;20174;-77
2021/06/09 03:02:37;;;;;;;;;;;;;;;15.37;50.17;101353.11;1600225;88;20146;-77
2021/06/09 03:05:16;;;;;;;;;;;;;;;15.36;50.33;101355.30;1617399;88;20114;-77
2021/06/09 03:07:57;;;;;;;;;;;;;;;15.33;50.39;101348.00;1610617;88;20111;-77
2021/06/09 03:10:50;;;;;;;;;;;;;;;15.32;50.41;101351.05;1608258;87;20108;-77
2021/06/09 03:13:28;;;;;;;;;;;;;;;15.30;50.47;101351.98;1603557;88;20112;-77
2021/06/09 03:16:04;;;;;;;;;;;;;;;15.27;50.59;101352.05;1607850;88;20107;-77
2021/06/09 03:18:44;;;;;;;;;;;;;;;15.26;50.72;101355.11;1601005;88;20099;-77
2021/06/09 03:21:13;;;;;;;;;;;;;;;15.26;50.81;101352.95;1606464;88;20134;-77
2021/06/09 03:23:57;;;;;;;;;;;;;;;15.29;50.89;101356.78;1608240;88;20100;-77
2021/06/09 03:26:55;;;;;;;;;;;;;;;15.30;50.95;101355.45;1605973;88;20116;-77
2021/06/09 03:29:37;;;;;;;;;;;;;;;15.30;50.99;101352.84;1605705;88;20134;-77
2021/06/09 03:32:05;;;;;;;;;;;;;;;15.30;51.00;101349.38;1598095;88;20125;-77
2021/06/09 03:34:50;;;;;;;;;;;;;;;15.29;51.12;101352.43;1613727;87;20135;-77
2021/06/09 03:37:20;;;;;;;;;;;;;;;15.29;51.26;101358.95;1607419;88;20127;-77
2021/06/09 03:39:47;;;;;;;;;;;;;;;15.28;51.26;101356.38;1609413;87;20098;-77
2021/06/09 03:42:17;;;;;;;;;;;;;;;15.28;51.28;101357.67;1599861;87;20117;-77
2021/06/09 03:44:48;;;;;;;;;;;;;;;15.27;51.35;101355.52;1619298;86;20130;-77
2021/06/09 03:47:16;;;;;;;;;;;;;;;15.27;51.38;101352.91;1621852;87;20138;-77
2021/06/09 03:49:44;;;;;;;;;;;;;;;15.27;51.44;101350.30;1618485;88;20138;-77
2021/06/09 03:52:10;;;;;;;;;;;;;;;15.28;51.47;101355.07;1618369;87;20102;-77
2021/06/09 03:54:47;;;;;;;;;;;;;;;15.29;51.54;101355.48;1618280;87;20105;-78
2021/06/09 03:57:15;;;;;;;;;;;;;;;15.28;51.61;101353.32;1597852;87;20137;-77
2021/06/09 03:59:43;;;;;;;;;;;;;;;15.28;51.73;101359.84;1627843;87;20115;-77
2021/06/09 04:02:09;;;;;;;;;;;;;;;15.30;51.72;101358.50;1623829;85;20093;-77
2021/06/09 04:04:36;;;;;;;;;;;;;;;15.34;51.88;101361.00;1616214;87;20211;-77
2021/06/09 04:07:05;;;;;;;;;;;;;;;15.51;52.18;101361.45;1616695;87;20254;-77
2021/06/09 04:09:31;;;;;;;;;;;;;;;15.91;52.40;101361.76;1616469;87;20188;-77
2021/06/09 04:12:00;;;;;;;;;;;;;;;16.34;52.26;101367.95;1616745;87;20185;-77
2021/06/09 04:14:38;;;;;;;;;;;;;;;16.63;52.02;101364.98;1612024;87;20252;-77
2021/06/09 04:17:06;;;;;;;;;;;;;;;16.78;51.83;101366.69;1619055;87;20137;-77
2021/06/09 04:19:34;;;;;;;;;;;;;;;16.82;51.74;101368.31;1619310;87;20114;-79
2021/06/09 04:22:05;;;;;;;;;;;;;;;16.88;51.76;101363.36;1625699;87;20101;-79
2021/06/09 04:24:33;;;;;;;;;;;;;;;16.96;51.81;101372.27;1612814;87;20146;-79
2021/06/09 04:27:00;;;;;;;;;;;;;;;17.00;51.74;101372.13;1618873;88;20130;-79
2021/06/09 04:29:26;;;;;;;;;;;;;;;17.04;51.75;101365.91;1626830;87;20130;-79
2021/06/09 04:31:52;;;;;;;;;;;;;;;17.01;51.74;101371.23;1618825;88;20149;-79
2021/06/09 04:34:18;;;;;;;;;;;;;;;17.00;51.70;101372.59;1618413;87;20533;-79
2021/06/09 04:36:48;;;;;;;;;;;;;;;16.97;51.80;101367.00;1618242;87;20093;-78
2021/06/09 04:39:14;;;;;;;;;;;;;;;16.98;51.83;101371.78;1622270;87;20150;-78
2021/06/09 04:41:40;;;;;;;;;;;;;;;16.99;51.80;101370.42;1607710;88;20185;-78
2021/06/09 04:44:06;;;;;;;;;;;;;;;17.00;51.80;101373.89;1598640;88;20151;-78
2021/06/09 04:46:32;;;;;;;;;;;;;;;17.01;51.83;101374.30;1604522;88;20095;-80
2021/06/09 04:49:03;;;;;;;;;;;;;;;17.01;51.84;101376.91;1600038;88;20114;-79
2021/06/09 04:51:33;;;;;;;;;;;;;;;17.04;51.92;101375.51;1602575;88;20106;-79
2021/06/09 04:54:01;;;;;;;;;;;;;;;17.11;52.00;101374.42;1599797;88;20127;-79
2021/06/09 04:56:31;;;;;;;;;;;;;;;17.27;51.95;101365.63;1600145;88;20115;-79
2021/06/09 04:59:07;;;;;;;;;;;;;;;17.58;52.28;101372.03;1599219;88;20123;-79
2021/06/09 05:01:38;;;;;;;;;;;;;;;18.21;52.35;101371.58;1597780;88;20115;-79
2021/06/09 05:04:05;;;;;;;;;;;;;;;18.88;52.14;101373.48;1599670;88;20108;-79
2021/06/09 05:06:31;;;;;;;;;;;;;;;19.58;51.94;101372.86;1606578;87;20114;-80
2021/06/09 05:08:57;;;;;;;;;;;;;;;20.28;51.85;101372.89;1599375;88;20102;-80
2021/06/09 05:11:43;;;;;;;;;;;;;;;21.00;51.34;101372.63;1597074;88;20131;-80
2021/06/09 05:14:14;;;;;;;;;;;;;;;21.61;51.01;101367.03;1600718;88;20095;-80
2021/06/09 05:16:42;;;;;;;;;;;;;;;22.30;50.84;101365.67;1603215;87;20107;-80
2021/06/09 05:19:09;;;;;;;;;;;;;;;22.84;50.58;101366.74;1599601;88;20107;-80
2021/06/09 05:21:38;;;;;;;;;;;;;;;23.40;50.16;101362.17;1600738;88;20532;-80
2021/06/09 05:24:05;;;;;;;;;;;;;;;23.95;49.89;101366.40;1599351;88;20122;-80
2021/06/09 05:26:31;;;;;;;;;;;;;;;24.54;49.70;101372.48;1596833;88;20115;-80
2021/06/09 05:29:08;;;;;;;;;;;;;;;25.06;49.42;101370.52;1599849;88;20147;-80
2021/06/09 05:31:35;;;;;;;;;;;;;;;25.56;49.18;101366.32;1600536;89;20102;-80
2021/06/09 05:34:02;;;;;;;;;;;;;;;26.17;49.11;101368.79;1606201;88;20136;-80
2021/06/09 05:36:29;;;;;;;;;;;;;;;26.74;48.77;101365.64;1598472;88;20214;-79
2021/06/09 05:38:55;;;;;;;;;;;;;;;27.15;48.47;101363.97;1597291;88;20194;-79
2021/06/09 05:41:24;;;;;;;;;;;;;;;27.63;48.25;101370.10;1610582;87;20140;-79
2021/06/09 05:43:50;;;;;;;;;;;;;;;28.05;47.89;101366.46;1615526;87;20101;-79
2021/06/09 05:46:18;;;;;;;;;;;;;;;28.42;47.61;101367.09;1615697;87;20134;-79
2021/06/09 05:48:45;;;;;;;;;;;;;;;28.73;47.42;101364.14;1616561;87;20122;-79
2021/06/09 05:51:14;;;;;;;;;;;;;;;29.03;47.28;101364.84;1614425;87;20139;-79
2021/06/09 05:53:44;;;;;;;;;;;;;;;29.22;46.71;101363.17;1615080;87;20094;-78
2021/06/09 05:56:10;;;;;;;;;;;;;;;29.36;46.58;101356.70;1613337;87;20113;-78
2021/06/09 05:58:38;;;;;;;;;;;;;;;29.57;46.55;101368.77;1610800;87;20146;-78
2021/06/09 06:01:07;;;;;;;;;;;;;;;29.91;46.23;101364.91;1646211;86;20089;-78
2021/06/09 06:03:33;;;;;;;;;;;;;;;30.18;45.94;101363.51;1646011;86;20089;-78
2021/06/09 06:06:03;;;;;;;;;;;;;;;30.37;45.62;101362.27;1642221;86;20098;-78
2021/06/09 06:08:29;;;;;;;;;;;;;;;30.51;45.29;101365.05;1639004;86;20134;-78
2021/06/09 06:10:55;;;;;;;;;;;;;;;30.58;45.18;101362.23;1642089;86;20097;-78
2021/06/09 06:13:26;;;;;;;;;;;;;;;30.76;45.00;101358.39;1650587;86;20104;-79
2021/06/09 06:15:56;;;;;;;;;;;;;;;30.99;44.78;101360.34;1649894;86;20113;-79
2021/06/09 06:18:38;;;;;;;;;;;;;;;31.15;44.23;101360.67;1655884;86;20101;-79
2021/06/09 06:21:07;;;;;;;;;;;;;;;31.24;43.86;101354.45;1640640;86;20096;-78
2021/06/09 06:23:33;;;;;;;;;;;;;;;31.20;43.73;101359.23;1650929;86;20111;-78
2021/06/09 06:25:59;;;;;;;;;;;;;;;31.42;43.82;101350.59;1642467;86;20155;-78
2021/06/09 06:28:26;;;;;;;;;;;;;;;31.55;43.16;101351.14;1620435;87;20091;-78
2021/06/09 06:30:53;;;;;;;;;;;;;;;31.73;43.13;101352.11;1614043;88;20114;-78
2021/06/09 06:33:24;;;;;;;;;;;;;;;31.73;42.90;101347.25;1619258;87;20099;-78
2021/06/09 06:35:51;;;;;;;;;;;;;;;31.75;42.36;101351.96;1614034;87;20094;-78
2021/06/09 06:38:19;;;;;;;;;;;;;;;31.73;42.06;101343.23;1614380;87;20134;-78
2021/06/09 06:40:45;;;;;;;;;;;;;;;31.62;41.57;101356.27;1608527;87;20131;-78
2021/06/09 06:43:11;;;;;;;;;;;;;;;31.57;41.51;101347.34;1598389;88;20139;-78
2021/06/09 06:45:39;;;;;;;;;;;;;;;31.58;41.09;101349.03;1597831;89;20118;-78
2021/06/09 06:48:05;;;;;;;;;;;;;;;31.50;40.89;101345.37;1599822;88;20095;-78
2021/06/09 06:50:32;;;;;;;;;;;;;;;31.44;40.67;101344.12;1581633;89;20178;-78
2021/06/09 06:53:04;;;;;;;;;;;;;;;31.48;40.54;101346.86;1597631;88;20115;-78
2021/06/09 06:55:27;;;;;;;;;;;;;;;31.55;40.19;101344.45;1597161;89;20143;-78
2021/06/09 06:57:54;;;;;;;;;;;;;;;31.30;39.90;101347.22;1601463;88;20170;-78
2021/06/09 07:00:22;;;;;;;;;;;;;;;30.86;39.51;101344.56;1596939;88;20121;-78
2021/06/09 07:02:55;;;;;;;;;;;;;;;30.37;39.66;101341.41;1580996;89;20171;-78
2021/06/09 07:05:23;;;;;;;;;;;;;;;30.34;39.64;101345.67;1598732;89;20156;-78
2021/06/09 07:07:50;;;;;;;;;;;;;;;30.45;39.32;101344.24;1599065;88;20115;-78
2021/06/09 07:10:18;;;;;;;;;;;;;;;30.63;39.21;101341.80;1598110;88;20135;-78
2021/06/09 07:12:45;;;;;;;;;;;;;;;30.78;39.05;101345.75;1598125;88;20139;-78
2021/06/09 07:15:19;;;;;;;;;;;;;;;30.77;38.69;101346.23;1599520;88;20100;-78
2021/06/09 07:17:48;;;;;;;;;;;;;;;30.67;38.59;101357.41;1586489;89;20136;-78
2021/06/09 07:20:21;;;;;;;;;;;;;;;30.46;38.36;101351.27;1603494;88;20137;-78
2021/06/09 07:22:48;;;;;;;;;;;;;;;30.26;38.21;101340.52;1604125;87;20116;-78
2021/06/09 07:25:14;;;;;;;;;;;;;;;30.20;38.33;101349.05;1605751;88;20100;-79
2021/06/09 07:27:43;;;;;;;;;;;;;;;30.46;38.51;101343.27;1609912;88;20115;-79
2021/06/09 07:30:10;;;;;;;;;;;;;;;30.63;38.10;101347.98;1596726;88;20638;-77
2021/06/09 07:32:39;;;;;;;;;;;;;;;30.61;38.28;101352.62;1598143;88;20103;-78
2021/06/09 07:35:07;;;;;;;;;;;;;;;30.66;38.04;101357.55;1579297;89;20525;-78
2021/06/09 07:37:45;;;;;;;;;;;;;;;30.48;37.92;101346.16;1598136;88;20132;-78
2021/06/09 07:40:20;;;;;;;;;;;;;;;30.60;38.04;101350.44;1598274;88;20111;-78
2021/06/09 07:42:49;;;;;;;;;;;;;;;30.73;37.70;101351.50;1605159;87;20525;-78
2021/06/09 07:45:17;;;;;;;;;;;;;;;30.72;37.42;101343.13;1641278;86;20098;-78
2021/06/09 07:47:46;;;;;;;;;;;;;;;30.93;37.34;101349.22;1641411;86;20556;-78
2021/06/09 07:50:14;;;;;;;;;;;;;;;30.89;36.64;101349.14;1638206;86;20114;-78
2021/06/09 07:52:41;;;;;;;;;;;;;;;30.80;36.76;101342.45;1638279;86;20133;-78
2021/06/09 07:55:08;;;;;;;;;;;;;;;30.92;36.43;101337.34;1641195;86;20161;-78
2021/06/09 07:57:36;;;;;;;;;;;;;;;30.92;36.33;101345.35;1642320;86;20105;-78
2021/06/09 08:00:05;;;;;;;;;;;;;;;30.82;36.01;101337.81;1642202;86;20114;-78
2021/06/09 08:02:35;;;;;;;;;;;;;;;30.61;36.19;101344.12;1641236;86;20430;-76
2021/06/09 08:05:03;;;;;;;;;;;;;;;30.55;35.93;101343.30;1643381;86;20126;-78
2021/06/09 08:07:32;;;;;;;;;;;;;;;30.36;36.08;101347.23;1653901;86;20109;-77
2021/06/09 08:10:01;;;;;;;;;;;;;;;30.18;35.76;101342.16;1642222;86;20113;-79
2021/06/09 08:12:27;;;;;;;;;;;;;;;29.97;35.71;101336.86;1642947;86;20184;-79
2021/06/09 08:14:53;;;;;;;;;;;;;;;29.88;35.85;101344.31;1643343;86;20133;-80
2021/06/09 08:17:23;;;;;;;;;;;;;;;29.85;35.78;101341.91;1642486;86;20231;-79
2021/06/09 08:19:49;;;;;;;;;;;;;;;29.73;35.40;101346.95;1639627;87;20101;-79
2021/06/09 08:22:21;;;;;;;;;;;;;;;29.61;35.53;101348.38;1641427;86;20126;-80
2021/06/09 08:24:48;;;;;;;;;;;;;;;29.62;35.36;101346.56;1647427;86;20194;-80
2021/06/09 08:27:15;;;;;;;;;;;;;;;29.45;35.12;101345.80;1653262;86;20135;-80
2021/06/09 08:29:42;;;;;;;;;;;;;;;29.25;35.46;101343.43;1650191;86;20518;-80
2021/06/09 08:32:09;;;;;;;;;;;;;;;28.98;35.12;101350.57;1664222;85;20574;-80
2021/06/09 08:34:35;;;;;;;;;;;;;;;28.87;35.25;101343.94;1643659;86;20113;-80
2021/06/09 08:37:13;;;;;;;;;;;;;;;28.81;35.06;101349.24;1643042;86;20134;-80
2021/06/09 08:39:39;;;;;;;;;;;;;;;28.80;35.01;101337.39;1644439;86;20172;-80
2021/06/09 08:42:06;;;;;;;;;;;;;;;28.84;34.88;101346.37;1636386;87;20172;-80
2021/06/09 08:44:38;;;;;;;;;;;;;;;28.86;34.87;101348.91;1628933;86;20561;-80
2021/06/09 08:47:03;;;;;;;;;;;;;;;28.71;34.59;101341.64;1685076;84;20103;-80
2021/06/09 08:49:29;;;;;;;;;;;;;;;28.48;34.49;101354.64;1662981;84;20175;-80
2021/06/09 08:51:55;;;;;;;;;;;;;;;28.18;34.43;101357.38;1659963;84;20129;-80
2021/06/09 08:54:22;;;;;;;;;;;;;;;27.94;34.31;101346.02;1669865;84;20106;-80
2021/06/09 08:56:53;;;;;;;;;;;;;;;28.34;34.35;101344.61;1665869;86;20138;-80
2021/06/09 08:59:23;;;;;;;;;;;;;;;28.99;34.43;101349.59;1666128;84;20105;-80
2021/06/09 09:01:50;;;;;;;;;;;;;;;29.67;34.34;101350.14;1670507;84;20541;-79
2021/06/09 09:04:16;;;;;;;;;;;;;;;30.14;34.20;101342.95;1669032;84;20573;-80
2021/06/09 09:06:42;;;;;;;;;;;;;;;30.69;34.33;101352.75;1677432;84;20113;-80
2021/06/09 09:09:08;;;;;;;;;;;;;;;31.06;34.07;101343.61;1666113;86;20113;-80
2021/06/09 09:11:34;;;;;;;;;;;;;;;31.28;33.87;101345.17;1662499;84;20156;-81
2021/06/09 09:14:01;;;;;;;;;;;;;;;31.26;33.69;101352.48;1660468;84;20097;-78
2021/06/09 09:16:27;;;;;;;;;;;;;;;31.18;33.74;101349.21;1664637;85;20110;-78
2021/06/09 09:19:01;;;;;;;;;;;;;;;31.09;33.94;101343.34;1665219;86;20089;-78
2021/06/09 09:21:42;;;;;;;;;;;;;;;30.85;33.74;101349.55;1667643;84;20140;-78
2021/06/09 09:24:12;;;;;;;;;;;;;;;30.65;33.98;101343.84;1652448;84;20100;-78
2021/06/09 09:26:41;;;;;;;;;;;;;;;30.29;33.63;101346.08;1643279;86;20183;-78
2021/06/09 09:29:12;;;;;;;;;;;;;;;29.76;33.82;101338.70;1651349;84;20132;-78
2021/06/09 09:31:48;;;;;;;;;;;;;;;29.02;33.57;101349.84;1654769;85;20221;-78
2021/06/09 09:34:34;;;;;;;;;;;;;;;28.33;33.30;101352.22;1629911;86;20207;-78
2021/06/09 09:37:09;;;;;;;;;;;;;;;27.73;33.42;101348.52;1663133;84;20196;-78
2021/06/09 09:39:39;;;;;;;;;;;;;;;27.38;33.37;101352.50;1659407;85;20192;-78
2021/06/09 09:42:20;;;;;;;;;;;;;;;27.11;33.29;101351.87;1651008;84;20185;-78
2021/06/09 09:44:49;;;;;;;;;;;;;;;26.83;33.27;101351.72;1642919;86;20141;-77
2021/06/09 09:47:19;;;;;;;;;;;;;;;26.56;33.14;101354.54;1651578;86;20189;-79
2021/06/09 09:49:48;;;;;;;;;;;;;;;26.22;32.88;101361.36;1641652;86;20113;-79
2021/06/09 09:52:13;;;;;;;;;;;;;;;26.01;33.14;101353.09;1642623;86;20093;-79
2021/06/09 09:54:40;;;;;;;;;;;;;;;25.91;33.25;101350.25;1643136;86;20239;-79
2021/06/09 09:57:11;;;;;;;;;;;;;;;25.87;33.28;101353.22;1639897;86;20173;-79
2021/06/09 09:59:38;;;;;;;;;;;;;;;25.85;33.32;101348.02;1642662;86;20129;-80
2021/06/09 10:02:13;;;;;;;;;;;;;;;25.73;33.30;101350.18;1630518;86;20130;-79
2021/06/09 10:04:39;;;;;;;;;;;;;;;25.66;33.26;101353.72;1632869;86;20130;-79
2021/06/09 10:07:10;;;;;;;;;;;;;;;25.58;33.15;101348.05;1644927;86;20098;-79
2021/06/09 10:09:38;;;;;;;;;;;;;;;25.39;33.17;101344.48;1642049;86;20134;-79
2021/06/09 10:12:07;;;;;;;;;;;;;;;25.33;33.32;101346.69;1638794;86;20139;-79
2021/06/09 10:14:46;;;;;;;;;;;;;;;25.33;33.54;101346.22;1638432;86;20114;-79
2021/06/09 10:17:13;;;;;;;;;;;;;;;25.34;33.63;101351.88;1641815;86;20113;-79
2021/06/09 10:19:49;;;;;;;;;;;;;;;25.43;33.57;101342.95;1641954;86;20090;-79
2021/06/09 10:22:19;;;;;;;;;;;;;;;25.45;33.50;101345.03;1644399;86;20139;-79
2021/06/09 10:24:49;;;;;;;;;;;;;;;25.36;33.46;101338.55;1649647;86;20437;-79
2021/06/09 10:27:17;;;;;;;;;;;;;;;25.24;33.59;101336.23;1643140;86;20540;-79
2021/06/09 10:29:45;;;;;;;;;;;;;;;25.21;33.61;101349.67;1631057;86;20109;-79
2021/06/09 10:32:16;;;;;;;;;;;;;;;25.17;33.78;101336.26;1579808;86;5000275;-79
2021/06/09 10:34:44;;;;;;;;;;;;;;;25.26;34.05;101328.19;1639020;86;20450;-79
2021/06/09 10:37:10;;;;;;;;;;;;;;;25.35;33.93;101331.55;1647033;86;20115;-79
2021/06/09 10:39:42;;;;;;;;;;;;;;;25.35;33.86;101339.02;1647199;86;20101;-79
2021/06/09 10:42:14;;;;;;;;;;;;;;;25.38;33.89;101330.88;1655791;84;20097;-79
2021/06/09 10:44:44;;;;;;;;;;;;;;;25.41;34.02;101335.12;1664507;84;20109;-78
2021/06/09 10:47:19;;;;;;;;;;;;;;;25.43;33.94;101335.86;1666762;85;20105;-78
2021/06/09 10:49:47;;;;;;;;;;;;;;;25.45;33.86;101329.14;1669528;84;20579;-78
2021/06/09 10:52:13;;;;;;;;;;;;;;;25.52;33.94;101328.59;1675125;84;20101;-78
2021/06/09 10:54:39;;;;;;;;;;;;;;;25.55;34.06;101325.74;1666401;85;20303;-78
2021/06/09 10:57:08;;;;;;;;;;;;;;;25.58;33.98;101328.19;1676572;84;20217;-78
2021/06/09 10:59:35;;;;;;;;;;;;;;;25.58;33.88;101327.34;1631261;86;20196;-78
2021/06/09 11:02:05;;;;;;;;;;;;;;;25.46;34.01;101326.86;1642591;86;20177;-78
2021/06/09 11:04:40;;;;;;;;;;;;;;;25.39;33.99;101312.71;1648561;86;20308;-78
2021/06/09 11:07:36;;;;;;;;;;;;;;;25.40;34.25;101315.73;1641870;86;20496;-79
2021/06/09 11:10:09;;;;;;;;;;;;;;;25.50;34.15;101315.94;1641260;86;20560;-79
2021/06/09 11:12:48;;;;;;;;;;;;;;;25.59;34.04;101319.28;1640741;86;20137;-79
2021/06/09 11:15:20;;;;;;;;;;;;;;;25.58;34.17;101312.77;1641255;86;20428;-79
2021/06/09 11:17:48;;;;;;;;;;;;;;;25.59;34.10;101310.02;1647834;86;20314;-80
2021/06/09 11:20:32;;;;;;;;;;;;;;;25.53;34.12;101318.37;1641502;86;20600;-79
2021/06/09 11:23:03;;;;;;;;;;;;;;;25.52;34.22;101320.66;1642477;86;20425;-79
2021/06/09 11:25:43;;;;;;;;;;;;;;;25.46;34.21;101311.83;1645466;86;20528;-79
2021/06/09 11:28:10;;;;;;;;;;;;;;;25.46;34.23;101311.83;1642488;86;20563;-79
2021/06/09 11:30:49;;;;;;;;;;;;;;;25.46;34.26;101305.20;1644412;86;20433;-79
2021/06/09 11:33:36;;;;;;;;;;;;;;;25.48;34.21;101304.59;1643622;85;20513;-79
2021/06/09 11:36:21;;;;;;;;;;;;;;;25.50;34.18;101300.05;1607943;86;20526;-79
2021/06/09 11:38:49;;;;;;;;;;;;;;;25.56;34.36;101296.13;1631940;86;20161;-79
2021/06/09 11:41:17;;;;;;;;;;;;;;;25.62;34.45;101298.37;1643449;86;20113;-79
2021/06/09 11:43:50;;;;;;;;;;;;;;;25.62;34.25;101299.69;1639268;86;20559;-79
2021/06/09 11:46:22;;;;;;;;;;;;;;;25.61;34.32;101297.52;1661476;84;20530;-79
2021/06/09 11:49:04;;;;;;;;;;;;;;;25.67;34.50;101289.66;1667216;84;20544;-79
2021/06/09 11:51:39;;;;;;;;;;;;;;;25.76;34.45;101283.73;1636345;86;20570;-80
2021/06/09 11:54:17;;;;;;;;;;;;;;;25.71;34.38;101297.77;1667838;84;20117;-78
2021/06/09 11:56:46;;;;;;;;;;;;;;;25.75;34.49;101290.47;1665659;84;20480;-80
2021/06/09 11:59:33;;;;;;;;;;;;;;;25.69;34.38;101293.91;1667393;84;20531;-79
2021/06/09 12:02:03;;;;;;;;;;;;;;;25.62;34.39;101291.27;1665127;84;20500;-79
2021/06/09 12:04:30;;;;;;;;;;;;;;;25.56;34.41;101285.54;1666247;84;20532;-79
2021/06/09 12:07:06;;;;;;;;;;;;;;;25.60;34.54;101294.50;1666393;84;20543;-79
2021/06/09 12:09:40;;;;;;;;;;;;;;;25.65;34.54;101283.14;1665415;84;20539;-79
2021/06/09 12:12:12;;;;;;;;;;;;;;;25.72;34.62;101287.07;1637495;84;20099;-79
2021/06/09 12:14:44;;;;;;;;;;;;;;;25.84;34.47;101277.43;1665518;84;20520;-79
2021/06/09 12:17:19;;;;;;;;;;;;;;;25.92;34.40;101279.55;1640123;85;20559;-79
2021/06/09 12:20:14;;;;;;;;;;;;;;;25.86;34.32;101276.84;1665231;84;20152;-79
2021/06/09 12:22:46;;;;;;;;;;;;;;;25.86;34.51;101276.84;1667813;84;20153;-82
2021/06/09 12:25:24;;;;;;;;;;;;;;;25.90;34.47;101281.45;1675042;84;20178;-82
2021/06/09 12:28:06;;;;;;;;;;;;;;;25.97;34.40;101274.78;1663892;85;20623;-82
2021/06/09 12:30:33;;;;;;;;;;;;;;;25.94;34.34;101274.99;1663561;84;20145;-82
2021/06/09 12:33:00;;;;;;;;;;;;;;;25.95;34.36;101275.36;1663869;84;20150;-82
2021/06/09 12:35:27;;;;;;;;;;;;;;;25.82;34.37;101275.84;1661055;84;20582;-82
2021/06/09 12:37:56;;;;;;;;;;;;;;;25.77;34.49;101262.06;1661880;85;20185;-82
2021/06/09 12:40:34;;;;;;;;;;;;;;;25.72;34.45;101267.20;1665464;85;20150;-82
2021/06/09 12:43:05;;;;;;;;;;;;;;;25.69;34.46;101270.54;1654487;84;20478;-82
2021/06/09 12:45:35;;;;;;;;;;;;;;;25.68;34.48;101258.25;1638959;86;20113;-82
2021/06/09 12:48:06;;;;;;;;;;;;;;;25.72;34.53;101265.88;1642399;86;20548;-82
2021/06/09 12:50:38;;;;;;;;;;;;;;;25.73;34.44;101267.58;1642956;86;20144;-82